sensor_id;sensor_type;location;lat;lon;timestamp;pressure;altitude;pressure_sealevel;temperature;humidity
59787;BME280;45672;51.612;5.536;2022-11-15T00:01:29;100642.28;;;7.16;100.00
59787;BME280;45672;51.612;5.536;2022-11-15T00:03:54;100649.25;;;7.17;100.00
59787;BME280;45672;51.612;5.536;2022-11-15T00:06:19;100641.16;;;7.18;100.00
59787;BME280;45672;51.612;5.536;2022-11-15T00:08:44;100646.31;;;7.20;100.00
59787;BME280;45672;51.612;5.536;2022-11-15T00:11:11;100645.22;;;7.22;100.00
59787;BME280;45672;51.612;5.536;2022-11-15T00:13:37;100638.81;;;7.25;100.00
59787;BME280;45672;51.612;5.536;2022-11-15T00:16:03;100629.72;;;7.28;100.00
59787;BME280;45672;51.612;5.536;2022-11-15T00:18:28;100636.56;;;7.30;100.00
59787;BME280;45672;51.612;5.536;2022-11-15T00:20:54;100638.81;;;7.35;100.00
59787;BME280;45672;51.612;5.536;2022-11-15T00:23:19;100639.22;;;7.40;100.00
59787;BME280;45672;51.612;5.536;2022-11-15T00:25:45;100644.94;;;7.45;100.00
59787;BME280;45672;51.612;5.536;2022-11-15T00:28:10;100642.00;;;7.48;100.00
59787;BME280;45672;51.612;5.536;2022-11-15T00:30:35;100645.09;;;7.53;100.00
59787;BME280;45672;51.612;5.536;2022-11-15T00:33:04;100636.84;;;7.56;100.00
59787;BME280;45672;51.612;5.536;2022-11-15T00:35:34;100639.91;;;7.62;100.00
59787;BME280;45672;51.612;5.536;2022-11-15T00:38:00;100635.03;;;7.67;100.00
59787;BME280;45672;51.612;5.536;2022-11-15T00:40:26;100640.75;;;7.72;100.00
59787;BME280;45672;51.612;5.536;2022-11-15T00:42:51;100634.31;;;7.74;100.00
59787;BME280;45672;51.612;5.536;2022-11-15T00:45:16;100640.84;;;7.80;100.00
59787;BME280;45672;51.612;5.536;2022-11-15T00:47:44;100624.69;;;7.83;100.00
59787;BME280;45672;51.612;5.536;2022-11-15T00:50:10;100624.56;;;7.85;100.00
59787;BME280;45672;51.612;5.536;2022-11-15T00:52:36;100624.13;;;7.89;100.00
59787;BME280;45672;51.612;5.536;2022-11-15T00:55:01;100622.00;;;7.93;100.00
59787;BME280;45672;51.612;5.536;2022-11-15T00:57:26;100612.94;;;7.96;100.00
59787;BME280;45672;51.612;5.536;2022-11-15T00:59:52;100616.97;;;8.00;100.00
59787;BME280;45672;51.612;5.536;2022-11-15T01:02:17;100614.16;;;8.01;100.00
59787;BME280;45672;51.612;5.536;2022-11-15T01:04:43;100615.56;;;8.05;100.00
59787;BME280;45672;51.612;5.536;2022-11-15T01:07:08;100615.25;;;8.08;100.00
59787;BME280;45672;51.612;5.536;2022-11-15T01:09:33;100611.66;;;8.09;100.00
59787;BME280;45672;51.612;5.536;2022-11-15T01:11:58;100614.97;;;8.11;100.00
59787;BME280;45672;51.612;5.536;2022-11-15T01:14:24;100623.47;;;8.15;100.00
59787;BME280;45672;51.612;5.536;2022-11-15T01:16:49;100621.50;;;8.17;100.00
59787;BME280;45672;51.612;5.536;2022-11-15T01:19:14;100612.44;;;8.20;100.00
59787;BME280;45672;51.612;5.536;2022-11-15T01:21:39;100607.84;;;8.22;100.00
59787;BME280;45672;51.612;5.536;2022-11-15T01:24:05;100608.50;;;8.24;100.00
59787;BME280;45672;51.612;5.536;2022-11-15T01:26:30;100601.94;;;8.28;100.00
59787;BME280;45672;51.612;5.536;2022-11-15T01:28:56;100597.19;;;8.32;100.00
59787;BME280;45672;51.612;5.536;2022-11-15T01:31:21;100597.88;;;8.34;100.00
59787;BME280;45672;51.612;5.536;2022-11-15T01:33:47;100597.72;;;8.35;100.00
59787;BME280;45672;51.612;5.536;2022-11-15T01:36:18;100592.97;;;8.39;100.00
59787;BME280;45672;51.612;5.536;2022-11-15T01:38:44;100579.56;;;8.40;100.00
59787;BME280;45672;51.612;5.536;2022-11-15T01:41:31;100583.06;;;8.41;100.00
59787;BME280;45672;51.612;5.536;2022-11-15T01:44:37;100582.75;;;8.44;100.00
59787;BME280;45672;51.612;5.536;2022-11-15T01:50:00;100586.00;;;8.48;100.00
59787;BME280;45672;51.612;5.536;2022-11-15T01:52:29;100586.81;;;8.48;100.00
59787;BME280;45672;51.612;5.536;2022-11-15T01:55:10;100587.66;;;8.49;100.00
59787;BME280;45672;51.612;5.536;2022-11-15T01:57:40;100588.19;;;8.52;100.00
59787;BME280;45672;51.612;5.536;2022-11-15T02:00:07;100582.72;;;8.54;100.00
59787;BME280;45672;51.612;5.536;2022-11-15T02:02:33;100591.09;;;8.59;100.00
59787;BME280;45672;51.612;5.536;2022-11-15T02:04:59;100583.81;;;8.61;100.00
59787;BME280;45672;51.612;5.536;2022-11-15T02:07:25;100588.53;;;8.67;100.00
59787;BME280;45672;51.612;5.536;2022-11-15T02:09:50;100574.28;;;8.68;100.00
59787;BME280;45672;51.612;5.536;2022-11-15T02:12:19;100584.47;;;8.73;100.00
59787;BME280;45672;51.612;5.536;2022-11-15T02:14:49;100582.31;;;8.76;100.00
59787;BME280;45672;51.612;5.536;2022-11-15T02:17:29;100576.72;;;8.79;100.00
59787;BME280;45672;51.612;5.536;2022-11-15T02:22:57;100562.00;;;8.85;100.00
59787;BME280;45672;51.612;5.536;2022-11-15T02:25:39;100559.06;;;8.88;100.00
59787;BME280;45672;51.612;5.536;2022-11-15T02:36:59;100557.69;;;9.02;100.00
59787;BME280;45672;51.612;5.536;2022-11-15T02:39:44;100558.38;;;9.04;100.00
59787;BME280;45672;51.612;5.536;2022-11-15T02:42:19;100559.75;;;9.08;100.00
59787;BME280;45672;51.612;5.536;2022-11-15T02:45:05;100555.81;;;9.12;100.00
59787;BME280;45672;51.612;5.536;2022-11-15T02:47:37;100550.03;;;9.17;100.00
59787;BME280;45672;51.612;5.536;2022-11-15T02:50:08;100544.56;;;9.19;100.00
59787;BME280;45672;51.612;5.536;2022-11-15T02:52:34;100545.09;;;9.22;100.00
59787;BME280;45672;51.612;5.536;2022-11-15T02:55:01;100549.25;;;9.25;100.00
59787;BME280;45672;51.612;5.536;2022-11-15T02:57:45;100541.13;;;9.26;100.00
59787;BME280;45672;51.612;5.536;2022-11-15T03:00:18;100540.69;;;9.31;100.00
59787;BME280;45672;51.612;5.536;2022-11-15T03:05:46;100547.22;;;9.37;100.00
59787;BME280;45672;51.612;5.536;2022-11-15T03:11:08;100538.78;;;9.41;100.00
59787;BME280;45672;51.612;5.536;2022-11-15T03:13:56;100528.00;;;9.43;100.00
59787;BME280;45672;51.612;5.536;2022-11-15T03:16:39;100535.97;;;9.43;100.00
59787;BME280;45672;51.612;5.536;2022-11-15T03:19:32;100530.81;;;9.41;100.00
59787;BME280;45672;51.612;5.536;2022-11-15T03:22:03;100529.34;;;9.47;100.00
59787;BME280;45672;51.612;5.536;2022-11-15T03:24:31;100525.72;;;9.48;100.00
59787;BME280;45672;51.612;5.536;2022-11-15T03:27:00;100526.53;;;9.48;100.00
59787;BME280;45672;51.612;5.536;2022-11-15T03:29:35;100531.38;;;9.53;100.00
59787;BME280;45672;51.612;5.536;2022-11-15T03:32:09;100535.56;;;9.56;100.00
59787;BME280;45672;51.612;5.536;2022-11-15T03:34:44;100539.56;;;9.60;100.00
59787;BME280;45672;51.612;5.536;2022-11-15T03:37:14;100534.09;;;9.61;100.00
59787;BME280;45672;51.612;5.536;2022-11-15T03:39:41;100542.06;;;9.61;100.00
59787;BME280;45672;51.612;5.536;2022-11-15T03:42:28;100544.41;;;9.64;100.00
59787;BME280;45672;51.612;5.536;2022-11-15T03:44:58;100537.94;;;9.67;100.00
59787;BME280;45672;51.612;5.536;2022-11-15T03:47:32;100539.31;;;9.71;100.00
59787;BME280;45672;51.612;5.536;2022-11-15T03:50:03;100536.66;;;9.71;100.00
59787;BME280;45672;51.612;5.536;2022-11-15T03:52:32;100535.66;;;9.72;100.00
59787;BME280;45672;51.612;5.536;2022-11-15T03:55:01;100535.34;;;9.75;100.00
59787;BME280;45672;51.612;5.536;2022-11-15T03:57:27;100540.34;;;9.78;100.00
59787;BME280;45672;51.612;5.536;2022-11-15T03:59:52;100534.50;;;9.75;100.00
59787;BME280;45672;51.612;5.536;2022-11-15T04:02:17;100531.69;;;9.76;100.00
59787;BME280;45672;51.612;5.536;2022-11-15T04:04:42;100527.06;;;9.78;100.00
59787;BME280;45672;51.612;5.536;2022-11-15T04:07:08;100533.03;;;9.80;100.00
59787;BME280;45672;51.612;5.536;2022-11-15T04:09:33;100528.25;;;9.84;100.00
59787;BME280;45672;51.612;5.536;2022-11-15T04:12:18;100532.59;;;9.85;100.00
59787;BME280;45672;51.612;5.536;2022-11-15T04:14:56;100531.41;;;9.88;100.00
59787;BME280;45672;51.612;5.536;2022-11-15T04:17:32;100525.81;;;9.91;100.00
59787;BME280;45672;51.612;5.536;2022-11-15T04:19:57;100527.28;;;9.93;100.00
59787;BME280;45672;51.612;5.536;2022-11-15T04:22:41;100524.63;;;9.93;100.00
59787;BME280;45672;51.612;5.536;2022-11-15T04:25:25;100526.31;;;9.94;100.00
59787;BME280;45672;51.612;5.536;2022-11-15T04:27:50;100527.00;;;9.96;100.00
59787;BME280;45672;51.612;5.536;2022-11-15T04:30:15;100528.31;;;9.92;100.00
59787;BME280;45672;51.612;5.536;2022-11-15T04:32:41;100531.28;;;9.97;100.00
59787;BME280;45672;51.612;5.536;2022-11-15T04:35:06;100527.13;;;9.95;100.00
59787;BME280;45672;51.612;5.536;2022-11-15T04:37:32;100526.13;;;9.96;100.00
59787;BME280;45672;51.612;5.536;2022-11-15T04:39:57;100531.28;;;9.97;100.00
59787;BME280;45672;51.612;5.536;2022-11-15T04:42:22;100526.13;;;9.96;100.00
59787;BME280;45672;51.612;5.536;2022-11-15T04:44:47;100530.31;;;9.98;100.00
59787;BME280;45672;51.612;5.536;2022-11-15T04:47:13;100531.47;;;9.96;100.00
59787;BME280;45672;51.612;5.536;2022-11-15T04:49:38;100531.13;;;9.91;100.00
59787;BME280;45672;51.612;5.536;2022-11-15T04:52:04;100540.56;;;9.93;100.00
59787;BME280;45672;51.612;5.536;2022-11-15T04:54:29;100543.06;;;9.95;100.00
59787;BME280;45672;51.612;5.536;2022-11-15T04:56:54;100533.44;;;9.94;100.00
59787;BME280;45672;51.612;5.536;2022-11-15T04:59:19;100531.94;;;9.91;100.00
59787;BME280;45672;51.612;5.536;2022-11-15T05:01:45;100527.44;;;9.92;100.00
59787;BME280;45672;51.612;5.536;2022-11-15T05:04:10;100529.78;;;9.95;100.00
59787;BME280;45672;51.612;5.536;2022-11-15T05:06:49;100526.31;;;9.94;100.00
59787;BME280;45672;51.612;5.536;2022-11-15T05:09:15;100521.81;;;9.95;100.00
59787;BME280;45672;51.612;5.536;2022-11-15T05:11:41;100526.13;;;9.96;100.00
59787;BME280;45672;51.612;5.536;2022-11-15T05:14:06;100521.81;;;9.95;100.00
59787;BME280;45672;51.612;5.536;2022-11-15T05:16:31;100521.81;;;9.95;100.00
59787;BME280;45672;51.612;5.536;2022-11-15T05:18:57;100520.00;;;9.95;100.00
59787;BME280;45672;51.612;5.536;2022-11-15T05:21:22;100527.81;;;9.97;100.00
59787;BME280;45672;51.612;5.536;2022-11-15T05:23:47;100525.97;;;9.97;100.00
59787;BME280;45672;51.612;5.536;2022-11-15T05:26:15;100524.84;;;10.00;100.00
59787;BME280;45672;51.612;5.536;2022-11-15T05:28:41;100508.38;;;9.96;100.00
59787;BME280;45672;51.612;5.536;2022-11-15T05:31:09;100520.22;;;10.02;100.00
59787;BME280;45672;51.612;5.536;2022-11-15T05:33:36;100521.84;;;10.03;100.00
59787;BME280;45672;51.612;5.536;2022-11-15T05:36:06;100522.88;;;10.02;100.00
59787;BME280;45672;51.612;5.536;2022-11-15T05:38:33;100519.19;;;10.03;100.00
59787;BME280;45672;51.612;5.536;2022-11-15T05:41:00;100517.06;;;10.07;100.00
59787;BME280;45672;51.612;5.536;2022-11-15T05:43:26;100522.22;;;10.08;100.00
59787;BME280;45672;51.612;5.536;2022-11-15T05:45:52;100507.25;;;10.07;100.00
59787;BME280;45672;51.612;5.536;2022-11-15T05:48:17;100501.28;;;10.05;100.00
59787;BME280;45672;51.612;5.536;2022-11-15T05:50:45;100510.91;;;10.06;100.00
59787;BME280;45672;51.612;5.536;2022-11-15T05:53:13;100514.25;;;10.08;100.00
59787;BME280;45672;51.612;5.536;2022-11-15T05:55:39;100516.09;;;10.08;100.00
59787;BME280;45672;51.612;5.536;2022-11-15T05:58:05;100510.59;;;10.09;100.00
59787;BME280;45672;51.612;5.536;2022-11-15T06:00:31;100509.09;;;10.07;100.00
59787;BME280;45672;51.612;5.536;2022-11-15T06:02:56;100517.06;;;10.07;100.00
59787;BME280;45672;51.612;5.536;2022-11-15T06:05:21;100512.41;;;10.09;100.00
59787;BME280;45672;51.612;5.536;2022-11-15T06:07:47;100528.34;;;10.09;100.00
59787;BME280;45672;51.612;5.536;2022-11-15T06:10:12;100529.22;;;10.09;100.00
59787;BME280;45672;51.612;5.536;2022-11-15T06:12:37;100529.88;;;10.11;100.00
59787;BME280;45672;51.612;5.536;2022-11-15T06:15:03;100519.56;;;10.08;100.00
59787;BME280;45672;51.612;5.536;2022-11-15T06:17:28;100527.38;;;10.10;100.00
59787;BME280;45672;51.612;5.536;2022-11-15T06:19:54;100520.06;;;10.12;100.00
59787;BME280;45672;51.612;5.536;2022-11-15T06:22:19;100526.06;;;10.14;100.00
59787;BME280;45672;51.612;5.536;2022-11-15T06:24:44;100535.72;;;10.15;100.00
59787;BME280;45672;51.612;5.536;2022-11-15T06:27:10;100530.91;;;10.18;100.00
59787;BME280;45672;51.612;5.536;2022-11-15T06:29:36;100539.03;;;10.17;100.00
59787;BME280;45672;51.612;5.536;2022-11-15T06:32:01;100537.19;;;10.17;100.00
59787;BME280;45672;51.612;5.536;2022-11-15T06:34:26;100542.06;;;10.22;100.00
59787;BME280;45672;51.612;5.536;2022-11-15T06:36:52;100551.84;;;10.22;100.00
59787;BME280;45672;51.612;5.536;2022-11-15T06:39:17;100544.88;;;10.21;100.00
59787;BME280;45672;51.612;5.536;2022-11-15T06:41:42;100546.69;;;10.20;100.00
59787;BME280;45672;51.612;5.536;2022-11-15T06:44:07;100544.19;;;10.18;100.00
59787;BME280;45672;51.612;5.536;2022-11-15T06:46:33;100549.66;;;10.17;100.00
59787;BME280;45672;51.612;5.536;2022-11-15T06:48:58;100550.66;;;10.16;100.00
59787;BME280;45672;51.612;5.536;2022-11-15T06:51:23;100556.81;;;10.16;100.00
59787;BME280;45672;51.612;5.536;2022-11-15T06:53:49;100557.81;;;10.15;100.00
59787;BME280;45672;51.612;5.536;2022-11-15T06:56:14;100564.97;;;10.15;100.00
59787;BME280;45672;51.612;5.536;2022-11-15T06:58:39;100563.44;;;10.12;100.00
59787;BME280;45672;51.612;5.536;2022-11-15T07:01:08;100575.75;;;10.13;100.00
59787;BME280;45672;51.612;5.536;2022-11-15T07:03:35;100571.56;;;10.11;100.00
59787;BME280;45672;51.612;5.536;2022-11-15T07:06:01;100565.56;;;10.09;100.00
59787;BME280;45672;51.612;5.536;2022-11-15T07:08:27;100573.72;;;10.07;100.00
59787;BME280;45672;51.612;5.536;2022-11-15T07:10:54;100575.72;;;10.05;100.00
59787;BME280;45672;51.612;5.536;2022-11-15T07:13:19;100570.72;;;10.02;100.00
59787;BME280;45672;51.612;5.536;2022-11-15T07:15:45;100560.69;;;9.96;100.00
59787;BME280;45672;51.612;5.536;2022-11-15T07:18:10;100574.84;;;9.96;100.00
59787;BME280;45672;51.612;5.536;2022-11-15T07:20:35;100575.81;;;9.95;100.00
59787;BME280;45672;51.612;5.536;2022-11-15T07:23:04;100577.63;;;9.95;100.00
59787;BME280;45672;51.612;5.536;2022-11-15T07:25:30;100584.09;;;9.92;100.00
59787;BME280;45672;51.612;5.536;2022-11-15T07:27:57;100582.94;;;9.95;100.00
59787;BME280;45672;51.612;5.536;2022-11-15T07:30:22;100587.44;;;9.94;100.00
59787;BME280;45672;51.612;5.536;2022-11-15T07:32:55;100571.47;;;9.94;100.00
59787;BME280;45672;51.612;5.536;2022-11-15T07:35:21;100574.97;;;9.95;100.00
59787;BME280;45672;51.612;5.536;2022-11-15T07:38:00;100584.59;;;9.96;100.00
59787;BME280;45672;51.612;5.536;2022-11-15T07:40:30;100572.47;;;9.93;100.00
59787;BME280;45672;51.612;5.536;2022-11-15T07:43:03;100580.97;;;9.97;100.00
59787;BME280;45672;51.612;5.536;2022-11-15T07:45:29;100575.66;;;9.97;100.00
59787;BME280;45672;51.612;5.536;2022-11-15T07:47:55;100581.13;;;9.95;100.00
59787;BME280;45672;51.612;5.536;2022-11-15T07:50:22;100577.84;;;10.01;100.00
59787;BME280;45672;51.612;5.536;2022-11-15T07:52:47;100573.22;;;10.04;100.00
59787;BME280;45672;51.612;5.536;2022-11-15T07:55:13;100566.44;;;10.09;100.00
59787;BME280;45672;51.612;5.536;2022-11-15T07:57:38;100561.09;;;10.09;100.00
59787;BME280;45672;51.612;5.536;2022-11-15T08:00:05;100565.94;;;10.14;100.00
59787;BME280;45672;51.612;5.536;2022-11-15T08:02:31;100562.97;;;10.17;100.00
59787;BME280;45672;51.612;5.536;2022-11-15T08:04:56;100562.78;;;10.18;100.00
59787;BME280;45672;51.612;5.536;2022-11-15T08:07:22;100557.16;;;10.22;100.00
59787;BME280;45672;51.612;5.536;2022-11-15T08:09:47;100568.16;;;10.27;100.00
59787;BME280;45672;51.612;5.536;2022-11-15T08:12:12;100570.81;;;10.27;100.00
59787;BME280;45672;51.612;5.536;2022-11-15T08:14:37;100578.47;;;10.30;100.00
59787;BME280;45672;51.612;5.536;2022-11-15T08:17:03;100581.13;;;10.30;100.00
59787;BME280;45672;51.612;5.536;2022-11-15T08:19:28;100584.78;;;10.29;100.00
59787;BME280;45672;51.612;5.536;2022-11-15T08:21:54;100585.41;;;10.23;100.00
59787;BME280;45672;51.612;5.536;2022-11-15T08:24:19;100582.44;;;10.26;100.00
59787;BME280;45672;51.612;5.536;2022-11-15T08:26:45;100582.59;;;10.24;100.00
59787;BME280;45672;51.612;5.536;2022-11-15T08:29:10;100585.09;;;10.26;100.00
59787;BME280;45672;51.612;5.536;2022-11-15T08:31:36;100582.50;;;10.34;100.00
59787;BME280;45672;51.612;5.536;2022-11-15T08:34:05;100589.19;;;10.38;100.00
59787;BME280;45672;51.612;5.536;2022-11-15T08:36:31;100584.19;;;10.35;100.00
59787;BME280;45672;51.612;5.536;2022-11-15T08:38:56;100576.88;;;10.37;100.00
59787;BME280;45672;51.612;5.536;2022-11-15T08:41:31;100576.25;;;10.43;100.00
59787;BME280;45672;51.612;5.536;2022-11-15T08:43:56;100574.06;;;10.47;100.00
59787;BME280;45672;51.612;5.536;2022-11-15T08:46:22;100575.75;;;10.48;100.00
59787;BME280;45672;51.612;5.536;2022-11-15T08:48:47;100574.78;;;10.49;100.00
59787;BME280;45672;51.612;5.536;2022-11-15T08:51:13;100558.63;;;10.59;100.00
59787;BME280;45672;51.612;5.536;2022-11-15T08:53:38;100555.38;;;10.73;100.00
59787;BME280;45672;51.612;5.536;2022-11-15T08:56:08;100557.88;;;10.75;100.00
59787;BME280;45672;51.612;5.536;2022-11-15T08:58:34;100556.03;;;10.75;100.00
59787;BME280;45672;51.612;5.536;2022-11-15T09:00:59;100550.03;;;10.81;100.00
59787;BME280;45672;51.612;5.536;2022-11-15T09:03:24;100542.75;;;10.83;100.00
59787;BME280;45672;51.612;5.536;2022-11-15T09:05:54;100555.06;;;10.93;100.00
59787;BME280;45672;51.612;5.536;2022-11-15T09:08:20;100548.41;;;11.05;100.00
59787;BME280;45672;51.612;5.536;2022-11-15T09:10:45;100552.75;;;11.14;100.00
59787;BME280;45672;51.612;5.536;2022-11-15T09:13:10;100545.59;;;11.15;100.00
59787;BME280;45672;51.612;5.536;2022-11-15T09:15:35;100543.75;;;11.15;100.00
59787;BME280;45672;51.612;5.536;2022-11-15T09:18:01;100540.28;;;11.15;100.00
59787;BME280;45672;51.612;5.536;2022-11-15T09:20:26;100537.25;;;11.10;100.00
59787;BME280;45672;51.612;5.536;2022-11-15T09:22:51;100536.94;;;11.04;100.00
59787;BME280;45672;51.612;5.536;2022-11-15T09:25:16;100539.09;;;11.09;100.00
59787;BME280;45672;51.612;5.536;2022-11-15T09:27:42;100528.94;;;11.29;100.00
59787;BME280;45672;51.612;5.536;2022-11-15T09:30:07;100526.78;;;11.25;100.00
59787;BME280;45672;51.612;5.536;2022-11-15T09:32:33;100515.63;;;11.21;100.00
59787;BME280;45672;51.612;5.536;2022-11-15T09:34:59;100503.66;;;11.17;100.00
59787;BME280;45672;51.612;5.536;2022-11-15T09:37:24;100508.66;;;11.20;100.00
59787;BME280;45672;51.612;5.536;2022-11-15T09:39:49;100516.78;;;11.18;100.00
59787;BME280;45672;51.612;5.536;2022-11-15T09:50:39;100524.44;;;11.54;100.00
59787;BME280;45672;51.612;5.536;2022-11-15T09:53:11;100515.91;;;11.59;100.00
59787;BME280;45672;51.612;5.536;2022-11-15T09:55:48;100511.09;;;11.63;100.00
59787;BME280;45672;51.612;5.536;2022-11-15T09:58:45;100512.25;;;11.68;100.00
59787;BME280;45672;51.612;5.536;2022-11-15T10:01:17;100512.56;;;11.65;100.00
59787;BME280;45672;51.612;5.536;2022-11-15T10:03:46;100516.25;;;11.64;100.00
59787;BME280;45672;51.612;5.536;2022-11-15T10:06:39;100507.41;;;11.64;98.60
59787;BME280;45672;51.612;5.536;2022-11-15T10:09:17;100505.25;;;11.59;99.46
59787;BME280;45672;51.612;5.536;2022-11-15T10:11:44;100502.13;;;11.55;97.48
59787;BME280;45672;51.612;5.536;2022-11-15T10:14:20;100498.25;;;11.58;97.21
59787;BME280;45672;51.612;5.536;2022-11-15T10:16:56;100499.09;;;11.59;95.50
59787;BME280;45672;51.612;5.536;2022-11-15T10:27:29;100482.25;;;11.66;91.10
59787;BME280;45672;51.612;5.536;2022-11-15T10:29:56;100491.41;;;11.72;91.04
59787;BME280;45672;51.612;5.536;2022-11-15T10:32:22;100494.88;;;11.72;88.38
59787;BME280;45672;51.612;5.536;2022-11-15T10:34:49;100492.09;;;11.66;86.79
59787;BME280;45672;51.612;5.536;2022-11-15T10:37:14;100479.59;;;11.58;85.92
59787;BME280;45672;51.612;5.536;2022-11-15T10:39:40;100475.78;;;11.52;86.72
59787;BME280;45672;51.612;5.536;2022-11-15T10:42:26;100472.47;;;11.50;86.56
59787;BME280;45672;51.612;5.536;2022-11-15T10:44:51;100470.16;;;11.47;86.84
59787;BME280;45672;51.612;5.536;2022-11-15T10:47:28;100457.31;;;11.51;88.23
59787;BME280;45672;51.612;5.536;2022-11-15T10:50:05;100460.78;;;11.60;87.21
59787;BME280;45672;51.612;5.536;2022-11-15T10:52:33;100462.44;;;11.61;85.46
59787;BME280;45672;51.612;5.536;2022-11-15T10:55:12;100463.78;;;11.65;84.11
59787;BME280;45672;51.612;5.536;2022-11-15T10:58:06;100450.09;;;11.68;85.88
59787;BME280;45672;51.612;5.536;2022-11-15T11:00:45;100456.41;;;11.67;82.58
59787;BME280;45672;51.612;5.536;2022-11-15T11:06:27;100445.91;;;11.73;82.64
59787;BME280;45672;51.612;5.536;2022-11-15T11:09:01;100441.91;;;11.78;83.98
59787;BME280;45672;51.612;5.536;2022-11-15T11:11:49;100441.69;;;11.87;83.65
59787;BME280;45672;51.612;5.536;2022-11-15T11:14:24;100440.53;;;11.90;81.89
59787;BME280;45672;51.612;5.536;2022-11-15T11:16:58;100436.19;;;11.89;81.35
59787;BME280;45672;51.612;5.536;2022-11-15T11:22:34;100414.69;;;11.90;81.27
59787;BME280;45672;51.612;5.536;2022-11-15T11:37:03;100398.16;;;11.64;79.72
59787;BME280;45672;51.612;5.536;2022-11-15T11:40:02;100393.34;;;11.59;81.52
59787;BME280;45672;51.612;5.536;2022-11-15T11:48:05;100373.56;;;11.53;80.74
59787;BME280;45672;51.612;5.536;2022-11-15T11:50:37;100366.53;;;11.61;81.31
59787;BME280;45672;51.612;5.536;2022-11-15T11:53:21;100351.13;;;11.71;82.75
59787;BME280;45672;51.612;5.536;2022-11-15T11:55:53;100368.75;;;11.80;81.18
59787;BME280;45672;51.612;5.536;2022-11-15T12:03:57;100342.88;;;11.97;81.96
59787;BME280;45672;51.612;5.536;2022-11-15T12:09:12;100340.66;;;12.01;82.45
59787;BME280;45672;51.612;5.536;2022-11-15T12:12:03;100330.84;;;12.01;82.36
59787;BME280;45672;51.612;5.536;2022-11-15T12:14:37;100331.34;;;11.97;81.97
59787;BME280;45672;51.612;5.536;2022-11-15T12:17:05;100316.38;;;11.96;82.02
59787;BME280;45672;51.612;5.536;2022-11-15T12:19:30;100314.88;;;11.93;80.45
59787;BME280;45672;51.612;5.536;2022-11-15T12:22:04;100314.06;;;11.93;81.57
59787;BME280;45672;51.612;5.536;2022-11-15T12:24:41;100314.38;;;11.98;81.89
59787;BME280;45672;51.612;5.536;2022-11-15T12:27:24;100304.38;;;12.00;82.40
59787;BME280;45672;51.612;5.536;2022-11-15T12:29:58;100300.34;;;12.04;81.41
59787;BME280;45672;51.612;5.536;2022-11-15T12:32:31;100302.47;;;12.09;79.48
59787;BME280;45672;51.612;5.536;2022-11-15T12:34:59;100301.47;;;12.10;80.45
59787;BME280;45672;51.612;5.536;2022-11-15T12:42:39;100273.25;;;12.15;79.09
59787;BME280;45672;51.612;5.536;2022-11-15T12:45:35;100270.91;;;12.12;81.19
59787;BME280;45672;51.612;5.536;2022-11-15T13:06:44;100233.69;;;12.04;76.99
59787;BME280;45672;51.612;5.536;2022-11-15T13:11:53;100237.28;;;12.11;77.25
59787;BME280;45672;51.612;5.536;2022-11-15T13:33:33;100186.69;;;12.18;77.50
59787;BME280;45672;51.612;5.536;2022-11-15T13:36:01;100191.22;;;12.17;76.46
59787;BME280;45672;51.612;5.536;2022-11-15T13:38:28;100188.38;;;12.19;76.01
59787;BME280;45672;51.612;5.536;2022-11-15T13:40:54;100190.66;;;12.22;75.06
59787;BME280;45672;51.612;5.536;2022-11-15T13:43:31;100181.66;;;12.23;75.43
59787;BME280;45672;51.612;5.536;2022-11-15T13:46:19;100173.28;;;12.26;75.17
59787;BME280;45672;51.612;5.536;2022-11-15T13:48:47;100180.72;;;12.31;74.52
59787;BME280;45672;51.612;5.536;2022-11-15T13:51:21;100178.72;;;12.33;73.60
59787;BME280;45672;51.612;5.536;2022-11-15T13:53:55;100163.53;;;12.33;73.45
59787;BME280;45672;51.612;5.536;2022-11-15T13:56:21;100162.72;;;12.33;73.57
59787;BME280;45672;51.612;5.536;2022-11-15T13:58:47;100148.38;;;12.34;73.17
59787;BME280;45672;51.612;5.536;2022-11-15T14:01:18;100151.31;;;12.39;74.08
59787;BME280;45672;51.612;5.536;2022-11-15T14:04:04;100134.66;;;12.37;74.96
59787;BME280;45672;51.612;5.536;2022-11-15T14:06:30;100143.03;;;12.34;73.82
59787;BME280;45672;51.612;5.536;2022-11-15T14:11:37;100126.75;;;12.29;73.80
59787;BME280;45672;51.612;5.536;2022-11-15T14:16:36;100119.84;;;12.19;74.41
59787;BME280;45672;51.612;5.536;2022-11-15T14:19:03;100111.84;;;12.19;75.14
59787;BME280;45672;51.612;5.536;2022-11-15T14:21:29;100114.88;;;12.16;75.01
59787;BME280;45672;51.612;5.536;2022-11-15T14:24:17;100102.56;;;12.15;75.66
59787;BME280;45672;51.612;5.536;2022-11-15T14:26:43;100098.44;;;12.13;75.10
59787;BME280;45672;51.612;5.536;2022-11-15T14:29:30;100094.91;;;12.12;75.90
59787;BME280;45672;51.612;5.536;2022-11-15T14:32:16;100096.78;;;12.12;76.01
59787;BME280;45672;51.612;5.536;2022-11-15T14:34:42;100087.94;;;12.11;75.11
59787;BME280;45672;51.612;5.536;2022-11-15T14:37:23;100077.47;;;12.10;75.88
59787;BME280;45672;51.612;5.536;2022-11-15T14:39:49;100077.28;;;12.11;75.26
59787;BME280;45672;51.612;5.536;2022-11-15T14:42:15;100069.00;;;12.06;75.86
59787;BME280;45672;51.612;5.536;2022-11-15T14:44:41;100067.34;;;12.05;75.72
59787;BME280;45672;51.612;5.536;2022-11-15T14:47:06;100069.38;;;12.03;76.17
59787;BME280;45672;51.612;5.536;2022-11-15T14:49:31;100076.53;;;12.02;76.18
59787;BME280;45672;51.612;5.536;2022-11-15T14:51:56;100065.22;;;12.00;76.77
59787;BME280;45672;51.612;5.536;2022-11-15T14:54:22;100061.75;;;12.00;76.12
59787;BME280;45672;51.612;5.536;2022-11-15T14:56:47;100053.56;;;12.01;75.43
59787;BME280;45672;51.612;5.536;2022-11-15T14:59:12;100051.41;;;11.97;76.11